sensor_id;sensor_type;location;lat;lon;timestamp;P1;durP1;ratioP1;P2;durP2;ratioP2
74974;SDS011;64061;50.836;19.138;2022-10-16T00:01:06;6.25;;;2.65;;
74974;SDS011;64061;50.836;19.138;2022-10-16T00:04:13;5.22;;;2.80;;
74974;SDS011;64061;50.836;19.138;2022-10-16T00:07:16;5.17;;;2.50;;
74974;SDS011;64061;50.836;19.138;2022-10-16T00:10:20;4.88;;;2.63;;
74974;SDS011;64061;50.836;19.138;2022-10-16T00:13:24;5.63;;;2.78;;
74974;SDS011;64061;50.836;19.138;2022-10-16T00:16:28;4.95;;;2.50;;
74974;SDS011;64061;50.836;19.138;2022-10-16T00:19:33;5.03;;;2.30;;
74974;SDS011;64061;50.836;19.138;2022-10-16T00:22:36;4.63;;;2.70;;
74974;SDS011;64061;50.836;19.138;2022-10-16T00:25:39;5.22;;;2.95;;
74974;SDS011;64061;50.836;19.138;2022-10-16T00:28:46;4.05;;;2.55;;
74974;SDS011;64061;50.836;19.138;2022-10-16T00:31:50;4.75;;;2.72;;
74974;SDS011;64061;50.836;19.138;2022-10-16T00:34:54;4.35;;;2.70;;
74974;SDS011;64061;50.836;19.138;2022-10-16T00:37:57;5.10;;;2.27;;
74974;SDS011;64061;50.836;19.138;2022-10-16T00:41:01;5.07;;;2.92;;
74974;SDS011;64061;50.836;19.138;2022-10-16T00:47:51;3.78;;;2.30;;
74974;SDS011;64061;50.836;19.138;2022-10-16T00:50:58;4.55;;;2.40;;
74974;SDS011;64061;50.836;19.138;2022-10-16T00:54:02;4.23;;;2.70;;
74974;SDS011;64061;50.836;19.138;2022-10-16T00:57:11;4.50;;;2.70;;
74974;SDS011;64061;50.836;19.138;2022-10-16T01:00:23;5.10;;;2.80;;
74974;SDS011;64061;50.836;19.138;2022-10-16T01:03:31;3.30;;;2.22;;
74974;SDS011;64061;50.836;19.138;2022-10-16T01:06:38;3.65;;;2.40;;
74974;SDS011;64061;50.836;19.138;2022-10-16T01:09:57;3.50;;;2.37;;
74974;SDS011;64061;50.836;19.138;2022-10-16T01:13:17;4.30;;;2.50;;
74974;SDS011;64061;50.836;19.138;2022-10-16T01:16:31;4.03;;;2.60;;
74974;SDS011;64061;50.836;19.138;2022-10-16T01:19:49;4.35;;;2.60;;
74974;SDS011;64061;50.836;19.138;2022-10-16T01:23:07;3.67;;;2.33;;
74974;SDS011;64061;50.836;19.138;2022-10-16T01:26:28;4.57;;;2.63;;
74974;SDS011;64061;50.836;19.138;2022-10-16T01:29:50;4.30;;;2.45;;
74974;SDS011;64061;50.836;19.138;2022-10-16T01:33:00;5.28;;;2.50;;
74974;SDS011;64061;50.836;19.138;2022-10-16T01:36:13;3.75;;;2.47;;
74974;SDS011;64061;50.836;19.138;2022-10-16T01:39:24;3.65;;;2.30;;
74974;SDS011;64061;50.836;19.138;2022-10-16T01:42:34;3.80;;;2.33;;
74974;SDS011;64061;50.836;19.138;2022-10-16T01:45:44;4.18;;;2.40;;
74974;SDS011;64061;50.836;19.138;2022-10-16T01:48:49;3.85;;;2.35;;
74974;SDS011;64061;50.836;19.138;2022-10-16T01:51:55;5.30;;;2.50;;
74974;SDS011;64061;50.836;19.138;2022-10-16T01:55:03;4.35;;;2.75;;
74974;SDS011;64061;50.836;19.138;2022-10-16T01:58:13;4.87;;;2.20;;
74974;SDS011;64061;50.836;19.138;2022-10-16T02:01:19;4.10;;;2.53;;
74974;SDS011;64061;50.836;19.138;2022-10-16T02:04:26;4.40;;;2.13;;
74974;SDS011;64061;50.836;19.138;2022-10-16T02:07:35;4.32;;;2.33;;
74974;SDS011;64061;50.836;19.138;2022-10-16T02:10:39;3.78;;;2.20;;
74974;SDS011;64061;50.836;19.138;2022-10-16T02:13:44;4.30;;;2.50;;
74974;SDS011;64061;50.836;19.138;2022-10-16T02:16:55;3.70;;;2.22;;
74974;SDS011;64061;50.836;19.138;2022-10-16T02:19:58;4.13;;;2.45;;
74974;SDS011;64061;50.836;19.138;2022-10-16T02:23:03;5.15;;;2.40;;
74974;SDS011;64061;50.836;19.138;2022-10-16T02:26:07;4.15;;;2.60;;
74974;SDS011;64061;50.836;19.138;2022-10-16T02:29:19;3.47;;;2.50;;
74974;SDS011;64061;50.836;19.138;2022-10-16T02:32:30;3.95;;;2.30;;
74974;SDS011;64061;50.836;19.138;2022-10-16T02:35:36;4.40;;;2.50;;
74974;SDS011;64061;50.836;19.138;2022-10-16T02:38:41;4.90;;;2.20;;
74974;SDS011;64061;50.836;19.138;2022-10-16T02:41:45;4.32;;;2.70;;
74974;SDS011;64061;50.836;19.138;2022-10-16T02:44:49;4.60;;;2.67;;
74974;SDS011;64061;50.836;19.138;2022-10-16T02:47:53;4.25;;;2.50;;
74974;SDS011;64061;50.836;19.138;2022-10-16T02:50:56;4.18;;;2.35;;
74974;SDS011;64061;50.836;19.138;2022-10-16T02:53:59;4.40;;;2.10;;
74974;SDS011;64061;50.836;19.138;2022-10-16T02:57:02;3.78;;;2.30;;
74974;SDS011;64061;50.836;19.138;2022-10-16T03:00:06;4.63;;;2.60;;
74974;SDS011;64061;50.836;19.138;2022-10-16T03:03:15;4.65;;;2.55;;
74974;SDS011;64061;50.836;19.138;2022-10-16T03:06:18;3.78;;;2.28;;
74974;SDS011;64061;50.836;19.138;2022-10-16T03:09:22;3.65;;;2.22;;
74974;SDS011;64061;50.836;19.138;2022-10-16T03:12:25;4.75;;;2.60;;
74974;SDS011;64061;50.836;19.138;2022-10-16T03:15:28;4.30;;;2.40;;
74974;SDS011;64061;50.836;19.138;2022-10-16T03:18:33;3.78;;;2.33;;
74974;SDS011;64061;50.836;19.138;2022-10-16T03:21:36;3.83;;;2.45;;
74974;SDS011;64061;50.836;19.138;2022-10-16T03:24:40;4.57;;;2.33;;
74974;SDS011;64061;50.836;19.138;2022-10-16T03:27:43;3.50;;;2.20;;
74974;SDS011;64061;50.836;19.138;2022-10-16T03:30:46;3.80;;;2.63;;
74974;SDS011;64061;50.836;19.138;2022-10-16T03:33:51;4.13;;;2.75;;
74974;SDS011;64061;50.836;19.138;2022-10-16T03:36:54;3.28;;;2.20;;
74974;SDS011;64061;50.836;19.138;2022-10-16T03:39:57;5.72;;;2.40;;
74974;SDS011;64061;50.836;19.138;2022-10-16T03:43:01;4.25;;;2.40;;
74974;SDS011;64061;50.836;19.138;2022-10-16T03:46:04;3.90;;;2.67;;
74974;SDS011;64061;50.836;19.138;2022-10-16T03:49:09;4.30;;;2.63;;
74974;SDS011;64061;50.836;19.138;2022-10-16T03:52:12;4.38;;;2.45;;
74974;SDS011;64061;50.836;19.138;2022-10-16T03:55:15;4.32;;;2.40;;
74974;SDS011;64061;50.836;19.138;2022-10-16T03:58:19;3.88;;;2.50;;
74974;SDS011;64061;50.836;19.138;2022-10-16T04:01:22;3.43;;;2.47;;
74974;SDS011;64061;50.836;19.138;2022-10-16T04:04:27;3.72;;;2.20;;
74974;SDS011;64061;50.836;19.138;2022-10-16T04:07:30;3.92;;;2.50;;
74974;SDS011;64061;50.836;19.138;2022-10-16T04:10:34;3.83;;;2.40;;
74974;SDS011;64061;50.836;19.138;2022-10-16T04:13:37;3.97;;;2.50;;
74974;SDS011;64061;50.836;19.138;2022-10-16T04:16:40;3.80;;;2.17;;
74974;SDS011;64061;50.836;19.138;2022-10-16T04:19:45;3.72;;;2.50;;
74974;SDS011;64061;50.836;19.138;2022-10-16T04:22:48;5.97;;;2.80;;
74974;SDS011;64061;50.836;19.138;2022-10-16T04:25:51;4.25;;;2.47;;
74974;SDS011;64061;50.836;19.138;2022-10-16T04:28:55;3.67;;;2.40;;
74974;SDS011;64061;50.836;19.138;2022-10-16T04:31:58;3.13;;;2.23;;
74974;SDS011;64061;50.836;19.138;2022-10-16T04:35:04;3.85;;;2.25;;
74974;SDS011;64061;50.836;19.138;2022-10-16T04:38:08;4.07;;;2.47;;
74974;SDS011;64061;50.836;19.138;2022-10-16T04:41:12;4.20;;;2.20;;
74974;SDS011;64061;50.836;19.138;2022-10-16T04:44:15;5.03;;;3.00;;
74974;SDS011;64061;50.836;19.138;2022-10-16T04:47:18;4.40;;;2.57;;
74974;SDS011;64061;50.836;19.138;2022-10-16T04:50:23;4.18;;;2.50;;
74974;SDS011;64061;50.836;19.138;2022-10-16T04:53:39;4.30;;;2.30;;
74974;SDS011;64061;50.836;19.138;2022-10-16T04:56:42;4.28;;;2.20;;
74974;SDS011;64061;50.836;19.138;2022-10-16T04:59:49;4.25;;;2.28;;
74974;SDS011;64061;50.836;19.138;2022-10-16T05:02:52;3.87;;;2.27;;
74974;SDS011;64061;50.836;19.138;2022-10-16T05:05:57;3.53;;;2.38;;
74974;SDS011;64061;50.836;19.138;2022-10-16T05:09:00;4.22;;;2.42;;
74974;SDS011;64061;50.836;19.138;2022-10-16T05:12:03;3.30;;;2.35;;
74974;SDS011;64061;50.836;19.138;2022-10-16T05:15:07;4.05;;;2.53;;
74974;SDS011;64061;50.836;19.138;2022-10-16T05:18:12;3.90;;;2.27;;
74974;SDS011;64061;50.836;19.138;2022-10-16T05:21:16;3.90;;;2.28;;
74974;SDS011;64061;50.836;19.138;2022-10-16T05:24:20;3.90;;;2.38;;
74974;SDS011;64061;50.836;19.138;2022-10-16T05:27:23;4.00;;;2.33;;
74974;SDS011;64061;50.836;19.138;2022-10-16T05:30:27;4.47;;;2.60;;
74974;SDS011;64061;50.836;19.138;2022-10-16T05:33:30;4.53;;;2.43;;
74974;SDS011;64061;50.836;19.138;2022-10-16T05:36:35;4.40;;;2.47;;
74974;SDS011;64061;50.836;19.138;2022-10-16T05:39:38;4.53;;;2.60;;
74974;SDS011;64061;50.836;19.138;2022-10-16T05:42:42;5.00;;;2.70;;
74974;SDS011;64061;50.836;19.138;2022-10-16T05:45:52;4.75;;;2.47;;
74974;SDS011;64061;50.836;19.138;2022-10-16T05:48:57;3.77;;;2.33;;
74974;SDS011;64061;50.836;19.138;2022-10-16T05:52:02;4.03;;;2.70;;
74974;SDS011;64061;50.836;19.138;2022-10-16T05:55:06;3.75;;;2.22;;
74974;SDS011;64061;50.836;19.138;2022-10-16T05:58:10;4.03;;;2.47;;
74974;SDS011;64061;50.836;19.138;2022-10-16T06:01:14;3.70;;;2.35;;
74974;SDS011;64061;50.836;19.138;2022-10-16T06:04:20;4.07;;;2.60;;
74974;SDS011;64061;50.836;19.138;2022-10-16T06:07:25;4.05;;;2.20;;
74974;SDS011;64061;50.836;19.138;2022-10-16T06:10:29;4.47;;;2.80;;
74974;SDS011;64061;50.836;19.138;2022-10-16T06:13:32;4.60;;;2.50;;
74974;SDS011;64061;50.836;19.138;2022-10-16T06:16:36;4.05;;;2.25;;
74974;SDS011;64061;50.836;19.138;2022-10-16T06:19:41;4.07;;;2.33;;
74974;SDS011;64061;50.836;19.138;2022-10-16T06:22:45;4.32;;;2.55;;
74974;SDS011;64061;50.836;19.138;2022-10-16T06:25:48;4.32;;;2.40;;
74974;SDS011;64061;50.836;19.138;2022-10-16T06:28:53;3.92;;;2.50;;
74974;SDS011;64061;50.836;19.138;2022-10-16T06:31:58;4.03;;;2.28;;
74974;SDS011;64061;50.836;19.138;2022-10-16T06:35:02;5.07;;;2.10;;
74974;SDS011;64061;50.836;19.138;2022-10-16T06:38:07;5.18;;;2.85;;
74974;SDS011;64061;50.836;19.138;2022-10-16T06:41:11;3.80;;;2.58;;
74974;SDS011;64061;50.836;19.138;2022-10-16T06:44:17;3.70;;;2.55;;
74974;SDS011;64061;50.836;19.138;2022-10-16T06:47:21;3.78;;;2.40;;
74974;SDS011;64061;50.836;19.138;2022-10-16T06:50:24;4.00;;;2.50;;
74974;SDS011;64061;50.836;19.138;2022-10-16T06:53:30;3.92;;;2.28;;
74974;SDS011;64061;50.836;19.138;2022-10-16T06:56:44;3.70;;;2.38;;
74974;SDS011;64061;50.836;19.138;2022-10-16T06:59:48;7.88;;;2.50;;
74974;SDS011;64061;50.836;19.138;2022-10-16T07:02:55;7.43;;;2.33;;
74974;SDS011;64061;50.836;19.138;2022-10-16T07:06:01;13.40;;;2.70;;
74974;SDS011;64061;50.836;19.138;2022-10-16T07:09:09;4.68;;;2.30;;
74974;SDS011;64061;50.836;19.138;2022-10-16T07:12:13;6.30;;;2.67;;
74974;SDS011;64061;50.836;19.138;2022-10-16T07:15:16;3.88;;;2.30;;
74974;SDS011;64061;50.836;19.138;2022-10-16T07:18:20;3.35;;;2.38;;
74974;SDS011;64061;50.836;19.138;2022-10-16T07:21:28;7.13;;;2.90;;
74974;SDS011;64061;50.836;19.138;2022-10-16T07:24:39;5.63;;;2.65;;
74974;SDS011;64061;50.836;19.138;2022-10-16T07:27:42;7.18;;;2.83;;
74974;SDS011;64061;50.836;19.138;2022-10-16T07:30:45;8.18;;;2.40;;
74974;SDS011;64061;50.836;19.138;2022-10-16T07:33:49;4.68;;;2.25;;
74974;SDS011;64061;50.836;19.138;2022-10-16T07:36:55;6.60;;;2.73;;
74974;SDS011;64061;50.836;19.138;2022-10-16T07:39:59;5.10;;;2.38;;
74974;SDS011;64061;50.836;19.138;2022-10-16T07:43:02;8.18;;;3.60;;
74974;SDS011;64061;50.836;19.138;2022-10-16T07:46:07;14.93;;;3.83;;
74974;SDS011;64061;50.836;19.138;2022-10-16T07:49:10;10.20;;;4.25;;
74974;SDS011;64061;50.836;19.138;2022-10-16T07:52:14;9.57;;;4.30;;
74974;SDS011;64061;50.836;19.138;2022-10-16T07:55:18;6.10;;;3.67;;
74974;SDS011;64061;50.836;19.138;2022-10-16T07:58:22;6.50;;;3.58;;
74974;SDS011;64061;50.836;19.138;2022-10-16T08:01:25;7.80;;;3.42;;
74974;SDS011;64061;50.836;19.138;2022-10-16T08:04:29;7.97;;;3.47;;
74974;SDS011;64061;50.836;19.138;2022-10-16T08:07:32;11.40;;;4.63;;
74974;SDS011;64061;50.836;19.138;2022-10-16T08:10:37;9.93;;;3.63;;
74974;SDS011;64061;50.836;19.138;2022-10-16T08:13:40;7.55;;;3.88;;
74974;SDS011;64061;50.836;19.138;2022-10-16T08:16:43;11.07;;;4.65;;
74974;SDS011;64061;50.836;19.138;2022-10-16T08:19:46;10.02;;;4.22;;
74974;SDS011;64061;50.836;19.138;2022-10-16T08:22:50;9.10;;;4.30;;
74974;SDS011;64061;50.836;19.138;2022-10-16T08:25:55;11.43;;;4.50;;
74974;SDS011;64061;50.836;19.138;2022-10-16T08:29:08;8.35;;;3.88;;
74974;SDS011;64061;50.836;19.138;2022-10-16T08:32:11;7.20;;;4.45;;
74974;SDS011;64061;50.836;19.138;2022-10-16T08:35:16;8.95;;;4.88;;
74974;SDS011;64061;50.836;19.138;2022-10-16T08:38:20;6.43;;;4.47;;
74974;SDS011;64061;50.836;19.138;2022-10-16T08:41:29;7.63;;;4.47;;
74974;SDS011;64061;50.836;19.138;2022-10-16T08:48:53;7.83;;;4.70;;
74974;SDS011;64061;50.836;19.138;2022-10-16T08:52:00;7.13;;;4.82;;
74974;SDS011;64061;50.836;19.138;2022-10-16T08:55:04;7.37;;;4.67;;
74974;SDS011;64061;50.836;19.138;2022-10-16T08:58:14;6.82;;;4.35;;
74974;SDS011;64061;50.836;19.138;2022-10-16T09:01:21;8.18;;;5.28;;
74974;SDS011;64061;50.836;19.138;2022-10-16T09:04:44;11.68;;;4.32;;
74974;SDS011;64061;50.836;19.138;2022-10-16T09:08:01;12.27;;;4.75;;
74974;SDS011;64061;50.836;19.138;2022-10-16T09:11:19;8.20;;;4.63;;
74974;SDS011;64061;50.836;19.138;2022-10-16T09:14:45;9.40;;;4.40;;
74974;SDS011;64061;50.836;19.138;2022-10-16T09:18:05;6.30;;;3.80;;
74974;SDS011;64061;50.836;19.138;2022-10-16T09:21:19;7.40;;;3.40;;
74974;SDS011;64061;50.836;19.138;2022-10-16T09:24:30;5.63;;;3.78;;
74974;SDS011;64061;50.836;19.138;2022-10-16T09:27:33;5.20;;;3.50;;
74974;SDS011;64061;50.836;19.138;2022-10-16T09:30:38;6.88;;;3.80;;
74974;SDS011;64061;50.836;19.138;2022-10-16T09:33:42;10.63;;;4.00;;
74974;SDS011;64061;50.836;19.138;2022-10-16T09:36:48;5.82;;;3.63;;
74974;SDS011;64061;50.836;19.138;2022-10-16T09:39:52;6.57;;;3.45;;
74974;SDS011;64061;50.836;19.138;2022-10-16T09:42:57;7.40;;;3.90;;
74974;SDS011;64061;50.836;19.138;2022-10-16T09:46:26;6.60;;;3.80;;
74974;SDS011;64061;50.836;19.138;2022-10-16T09:49:31;4.88;;;3.15;;
74974;SDS011;64061;50.836;19.138;2022-10-16T09:52:35;6.15;;;3.70;;
74974;SDS011;64061;50.836;19.138;2022-10-16T09:55:47;8.23;;;4.03;;
74974;SDS011;64061;50.836;19.138;2022-10-16T09:58:52;10.87;;;4.00;;
74974;SDS011;64061;50.836;19.138;2022-10-16T10:02:03;8.63;;;3.30;;
74974;SDS011;64061;50.836;19.138;2022-10-16T10:05:17;8.50;;;3.65;;
74974;SDS011;64061;50.836;19.138;2022-10-16T10:08:24;9.88;;;3.50;;
74974;SDS011;64061;50.836;19.138;2022-10-16T10:11:37;6.40;;;3.33;;
74974;SDS011;64061;50.836;19.138;2022-10-16T10:14:52;10.47;;;3.53;;
74974;SDS011;64061;50.836;19.138;2022-10-16T10:18:00;8.98;;;3.80;;
74974;SDS011;64061;50.836;19.138;2022-10-16T10:21:05;5.75;;;3.65;;
74974;SDS011;64061;50.836;19.138;2022-10-16T10:24:09;5.90;;;3.88;;
74974;SDS011;64061;50.836;19.138;2022-10-16T10:27:15;5.93;;;3.88;;
74974;SDS011;64061;50.836;19.138;2022-10-16T10:30:22;5.80;;;3.50;;
74974;SDS011;64061;50.836;19.138;2022-10-16T10:33:37;6.00;;;3.97;;
74974;SDS011;64061;50.836;19.138;2022-10-16T10:36:50;6.13;;;3.67;;
74974;SDS011;64061;50.836;19.138;2022-10-16T10:40:05;6.70;;;3.53;;
74974;SDS011;64061;50.836;19.138;2022-10-16T10:43:40;7.22;;;3.85;;
74974;SDS011;64061;50.836;19.138;2022-10-16T10:47:03;6.50;;;4.07;;
74974;SDS011;64061;50.836;19.138;2022-10-16T10:50:24;5.22;;;3.65;;
74974;SDS011;64061;50.836;19.138;2022-10-16T10:53:36;7.25;;;3.75;;
74974;SDS011;64061;50.836;19.138;2022-10-16T10:56:50;6.10;;;3.38;;
74974;SDS011;64061;50.836;19.138;2022-10-16T11:00:03;6.32;;;3.83;;
74974;SDS011;64061;50.836;19.138;2022-10-16T11:03:29;8.53;;;3.60;;
74974;SDS011;64061;50.836;19.138;2022-10-16T11:06:48;5.38;;;3.50;;
74974;SDS011;64061;50.836;19.138;2022-10-16T11:10:03;5.57;;;3.60;;
74974;SDS011;64061;50.836;19.138;2022-10-16T11:13:19;5.32;;;3.50;;
74974;SDS011;64061;50.836;19.138;2022-10-16T11:16:34;6.25;;;3.55;;
74974;SDS011;64061;50.836;19.138;2022-10-16T11:19:46;7.27;;;4.00;;
74974;SDS011;64061;50.836;19.138;2022-10-16T11:22:59;5.28;;;3.47;;
74974;SDS011;64061;50.836;19.138;2022-10-16T11:26:16;5.20;;;3.35;;
74974;SDS011;64061;50.836;19.138;2022-10-16T11:29:25;5.57;;;3.58;;
74974;SDS011;64061;50.836;19.138;2022-10-16T11:32:35;5.57;;;3.50;;
74974;SDS011;64061;50.836;19.138;2022-10-16T11:35:59;6.57;;;3.73;;
74974;SDS011;64061;50.836;19.138;2022-10-16T11:39:18;5.22;;;3.30;;
74974;SDS011;64061;50.836;19.138;2022-10-16T11:42:26;7.10;;;4.20;;
74974;SDS011;64061;50.836;19.138;2022-10-16T11:45:40;5.97;;;3.75;;
74974;SDS011;64061;50.836;19.138;2022-10-16T11:48:50;7.68;;;4.00;;
74974;SDS011;64061;50.836;19.138;2022-10-16T11:52:05;6.00;;;3.50;;
74974;SDS011;64061;50.836;19.138;2022-10-16T11:55:22;6.22;;;3.88;;
74974;SDS011;64061;50.836;19.138;2022-10-16T11:58:37;6.15;;;4.35;;
74974;SDS011;64061;50.836;19.138;2022-10-16T12:01:51;9.75;;;4.03;;
74974;SDS011;64061;50.836;19.138;2022-10-16T12:05:15;8.88;;;4.10;;
74974;SDS011;64061;50.836;19.138;2022-10-16T12:08:28;6.57;;;3.87;;
74974;SDS011;64061;50.836;19.138;2022-10-16T12:11:35;8.93;;;4.10;;
74974;SDS011;64061;50.836;19.138;2022-10-16T12:14:41;6.43;;;3.75;;
74974;SDS011;64061;50.836;19.138;2022-10-16T12:18:07;5.85;;;3.90;;
74974;SDS011;64061;50.836;19.138;2022-10-16T12:21:29;7.28;;;3.90;;
74974;SDS011;64061;50.836;19.138;2022-10-16T12:24:35;7.80;;;3.97;;
74974;SDS011;64061;50.836;19.138;2022-10-16T12:27:42;7.05;;;3.78;;
74974;SDS011;64061;50.836;19.138;2022-10-16T12:30:51;9.43;;;3.80;;
74974;SDS011;64061;50.836;19.138;2022-10-16T12:33:59;6.55;;;4.15;;
74974;SDS011;64061;50.836;19.138;2022-10-16T12:37:10;5.72;;;3.95;;
74974;SDS011;64061;50.836;19.138;2022-10-16T12:40:26;7.37;;;4.20;;
74974;SDS011;64061;50.836;19.138;2022-10-16T12:43:39;10.85;;;4.28;;
74974;SDS011;64061;50.836;19.138;2022-10-16T12:46:45;9.90;;;4.13;;
74974;SDS011;64061;50.836;19.138;2022-10-16T12:49:48;7.00;;;4.00;;
74974;SDS011;64061;50.836;19.138;2022-10-16T12:52:54;8.20;;;4.28;;
74974;SDS011;64061;50.836;19.138;2022-10-16T12:56:00;9.57;;;4.63;;
74974;SDS011;64061;50.836;19.138;2022-10-16T12:59:24;6.28;;;3.70;;
74974;SDS011;64061;50.836;19.138;2022-10-16T13:02:48;7.95;;;4.00;;
74974;SDS011;64061;50.836;19.138;2022-10-16T13:06:30;6.15;;;4.13;;
74974;SDS011;64061;50.836;19.138;2022-10-16T13:09:49;7.88;;;4.03;;
74974;SDS011;64061;50.836;19.138;2022-10-16T13:13:22;7.97;;;4.20;;
74974;SDS011;64061;50.836;19.138;2022-10-16T13:16:52;10.10;;;4.25;;
74974;SDS011;64061;50.836;19.138;2022-10-16T13:20:16;6.30;;;4.10;;
74974;SDS011;64061;50.836;19.138;2022-10-16T13:23:31;7.13;;;4.30;;
74974;SDS011;64061;50.836;19.138;2022-10-16T13:26:46;7.28;;;4.60;;
74974;SDS011;64061;50.836;19.138;2022-10-16T13:30:00;7.63;;;4.63;;
74974;SDS011;64061;50.836;19.138;2022-10-16T13:33:16;6.57;;;4.30;;
74974;SDS011;64061;50.836;19.138;2022-10-16T13:36:29;7.53;;;4.07;;
74974;SDS011;64061;50.836;19.138;2022-10-16T13:39:38;7.72;;;4.85;;
74974;SDS011;64061;50.836;19.138;2022-10-16T13:42:41;8.60;;;4.40;;
74974;SDS011;64061;50.836;19.138;2022-10-16T13:45:52;6.03;;;3.93;;
74974;SDS011;64061;50.836;19.138;2022-10-16T13:49:02;8.93;;;4.63;;
74974;SDS011;64061;50.836;19.138;2022-10-16T13:52:15;6.43;;;4.30;;
74974;SDS011;64061;50.836;19.138;2022-10-16T13:55:22;8.40;;;4.90;;
74974;SDS011;64061;50.836;19.138;2022-10-16T13:58:26;7.63;;;4.25;;
74974;SDS011;64061;50.836;19.138;2022-10-16T14:01:30;6.27;;;4.37;;
74974;SDS011;64061;50.836;19.138;2022-10-16T14:04:39;6.28;;;4.30;;
74974;SDS011;64061;50.836;19.138;2022-10-16T14:07:43;9.00;;;4.68;;
74974;SDS011;64061;50.836;19.138;2022-10-16T14:10:52;6.50;;;4.50;;
74974;SDS011;64061;50.836;19.138;2022-10-16T14:13:59;6.82;;;4.68;;
74974;SDS011;64061;50.836;19.138;2022-10-16T14:17:06;6.40;;;4.43;;
74974;SDS011;64061;50.836;19.138;2022-10-16T14:20:17;7.68;;;4.50;;
74974;SDS011;64061;50.836;19.138;2022-10-16T14:23:28;7.10;;;4.20;;
74974;SDS011;64061;50.836;19.138;2022-10-16T14:26:41;8.02;;;4.78;;
74974;SDS011;64061;50.836;19.138;2022-10-16T14:30:01;6.75;;;4.53;;
74974;SDS011;64061;50.836;19.138;2022-10-16T14:33:19;7.63;;;4.57;;
74974;SDS011;64061;50.836;19.138;2022-10-16T14:36:28;7.22;;;4.60;;
74974;SDS011;64061;50.836;19.138;2022-10-16T14:39:32;6.28;;;4.35;;
74974;SDS011;64061;50.836;19.138;2022-10-16T14:42:37;7.00;;;4.35;;
74974;SDS011;64061;50.836;19.138;2022-10-16T14:45:40;7.47;;;4.20;;
74974;SDS011;64061;50.836;19.138;2022-10-16T14:48:46;8.63;;;4.53;;
74974;SDS011;64061;50.836;19.138;2022-10-16T14:51:54;8.48;;;4.22;;
74974;SDS011;64061;50.836;19.138;2022-10-16T14:54:58;7.18;;;4.38;;
74974;SDS011;64061;50.836;19.138;2022-10-16T14:58:02;8.10;;;4.82;;
74974;SDS011;64061;50.836;19.138;2022-10-16T15:01:06;5.45;;;3.80;;
74974;SDS011;64061;50.836;19.138;2022-10-16T15:04:12;6.10;;;4.30;;
74974;SDS011;64061;50.836;19.138;2022-10-16T15:07:18;8.27;;;3.92;;
74974;SDS011;64061;50.836;19.138;2022-10-16T15:10:23;6.25;;;4.13;;
74974;SDS011;64061;50.836;19.138;2022-10-16T15:13:30;5.53;;;3.70;;
74974;SDS011;64061;50.836;19.138;2022-10-16T15:16:33;8.82;;;4.45;;
74974;SDS011;64061;50.836;19.138;2022-10-16T15:19:36;5.23;;;3.50;;
74974;SDS011;64061;50.836;19.138;2022-10-16T15:22:42;5.75;;;3.90;;
74974;SDS011;64061;50.836;19.138;2022-10-16T15:25:46;6.18;;;4.05;;
74974;SDS011;64061;50.836;19.138;2022-10-16T15:28:51;6.43;;;4.18;;
74974;SDS011;64061;50.836;19.138;2022-10-16T15:31:56;7.53;;;4.40;;
74974;SDS011;64061;50.836;19.138;2022-10-16T15:34:59;6.03;;;3.70;;
74974;SDS011;64061;50.836;19.138;2022-10-16T15:38:04;7.15;;;3.85;;
74974;SDS011;64061;50.836;19.138;2022-10-16T15:41:07;6.85;;;3.90;;
74974;SDS011;64061;50.836;19.138;2022-10-16T15:44:11;6.45;;;4.28;;
74974;SDS011;64061;50.836;19.138;2022-10-16T15:47:15;6.20;;;4.47;;
74974;SDS011;64061;50.836;19.138;2022-10-16T15:50:22;7.80;;;4.13;;
74974;SDS011;64061;50.836;19.138;2022-10-16T15:53:28;6.07;;;3.90;;
74974;SDS011;64061;50.836;19.138;2022-10-16T15:56:31;4.88;;;3.90;;
74974;SDS011;64061;50.836;19.138;2022-10-16T15:59:35;6.55;;;3.75;;
74974;SDS011;64061;50.836;19.138;2022-10-16T16:02:39;6.03;;;4.00;;
74974;SDS011;64061;50.836;19.138;2022-10-16T16:05:43;6.77;;;4.00;;
74974;SDS011;64061;50.836;19.138;2022-10-16T16:08:49;6.50;;;3.80;;
74974;SDS011;64061;50.836;19.138;2022-10-16T16:11:52;7.43;;;4.10;;
74974;SDS011;64061;50.836;19.138;2022-10-16T16:14:55;5.93;;;4.22;;
74974;SDS011;64061;50.836;19.138;2022-10-16T16:18:04;8.35;;;4.00;;
74974;SDS011;64061;50.836;19.138;2022-10-16T16:21:08;7.63;;;4.17;;
74974;SDS011;64061;50.836;19.138;2022-10-16T16:24:15;9.00;;;4.35;;
74974;SDS011;64061;50.836;19.138;2022-10-16T16:27:19;7.03;;;4.55;;
74974;SDS011;64061;50.836;19.138;2022-10-16T16:30:26;6.72;;;4.57;;
74974;SDS011;64061;50.836;19.138;2022-10-16T16:33:31;8.40;;;4.07;;
74974;SDS011;64061;50.836;19.138;2022-10-16T16:36:35;5.00;;;3.77;;
74974;SDS011;64061;50.836;19.138;2022-10-16T16:39:40;6.15;;;3.97;;
74974;SDS011;64061;50.836;19.138;2022-10-16T16:42:43;6.72;;;4.43;;
74974;SDS011;64061;50.836;19.138;2022-10-16T16:45:55;7.22;;;4.68;;
74974;SDS011;64061;50.836;19.138;2022-10-16T16:48:58;7.28;;;4.20;;
74974;SDS011;64061;50.836;19.138;2022-10-16T16:52:03;8.80;;;4.23;;
74974;SDS011;64061;50.836;19.138;2022-10-16T16:55:08;11.35;;;4.00;;
74974;SDS011;64061;50.836;19.138;2022-10-16T16:58:12;11.55;;;4.40;;
74974;SDS011;64061;50.836;19.138;2022-10-16T17:01:15;6.72;;;3.72;;
74974;SDS011;64061;50.836;19.138;2022-10-16T17:04:22;6.88;;;4.43;;
74974;SDS011;64061;50.836;19.138;2022-10-16T17:07:25;5.90;;;4.00;;
74974;SDS011;64061;50.836;19.138;2022-10-16T17:10:31;8.93;;;4.28;;
74974;SDS011;64061;50.836;19.138;2022-10-16T17:13:36;5.82;;;4.20;;
74974;SDS011;64061;50.836;19.138;2022-10-16T17:16:40;7.72;;;4.57;;
74974;SDS011;64061;50.836;19.138;2022-10-16T17:19:45;7.35;;;4.20;;
74974;SDS011;64061;50.836;19.138;2022-10-16T17:22:48;6.63;;;4.13;;
74974;SDS011;64061;50.836;19.138;2022-10-16T17:25:54;8.05;;;4.78;;
74974;SDS011;64061;50.836;19.138;2022-10-16T17:28:58;8.88;;;4.80;;
74974;SDS011;64061;50.836;19.138;2022-10-16T17:32:03;7.93;;;4.97;;
74974;SDS011;64061;50.836;19.138;2022-10-16T17:35:07;7.68;;;4.30;;
74974;SDS011;64061;50.836;19.138;2022-10-16T17:38:10;8.57;;;4.63;;
74974;SDS011;64061;50.836;19.138;2022-10-16T17:41:19;9.00;;;4.75;;
74974;SDS011;64061;50.836;19.138;2022-10-16T17:44:27;8.30;;;4.43;;
74974;SDS011;64061;50.836;19.138;2022-10-16T17:47:30;10.52;;;4.85;;
74974;SDS011;64061;50.836;19.138;2022-10-16T17:50:38;11.90;;;5.28;;
74974;SDS011;64061;50.836;19.138;2022-10-16T17:53:42;9.80;;;5.50;;
74974;SDS011;64061;50.836;19.138;2022-10-16T17:56:47;11.20;;;6.82;;
74974;SDS011;64061;50.836;19.138;2022-10-16T17:59:50;10.40;;;6.28;;
74974;SDS011;64061;50.836;19.138;2022-10-16T18:02:56;15.63;;;10.80;;
74974;SDS011;64061;50.836;19.138;2022-10-16T18:06:00;16.73;;;14.52;;
74974;SDS011;64061;50.836;19.138;2022-10-16T18:09:06;11.67;;;7.70;;
74974;SDS011;64061;50.836;19.138;2022-10-16T18:12:12;9.95;;;6.40;;
74974;SDS011;64061;50.836;19.138;2022-10-16T18:15:16;11.60;;;5.35;;
74974;SDS011;64061;50.836;19.138;2022-10-16T18:18:20;10.00;;;5.10;;
74974;SDS011;64061;50.836;19.138;2022-10-16T18:21:30;8.18;;;5.68;;
74974;SDS011;64061;50.836;19.138;2022-10-16T18:24:33;9.17;;;5.40;;
74974;SDS011;64061;50.836;19.138;2022-10-16T18:27:38;9.27;;;5.43;;
74974;SDS011;64061;50.836;19.138;2022-10-16T18:30:42;8.02;;;5.13;;
74974;SDS011;64061;50.836;19.138;2022-10-16T18:33:45;8.82;;;4.85;;
74974;SDS011;64061;50.836;19.138;2022-10-16T18:36:51;9.80;;;6.07;;
74974;SDS011;64061;50.836;19.138;2022-10-16T18:39:58;32.63;;;11.37;;